Time;durP1;ratioP1;P1;durP2;ratioP2;P2;SDS_P1;SDS_P2;PMS_P1;PMS_P2;Temp;Humidity;BMP_temperature;BMP_pressure;BME280_temperature;BME280_humidity;BME280_pressure;Samples;Min_cycle;Max_cycle;Signal;HPM_P1;HPM_P2
2021/10/14 00:00:37;;;;;;;15.73;15.30;;;;;;;;;;4991307;28;20038;-56
2021/10/14 00:03:08;;;;;;;17.23;16.63;;;;;;;;;;4984660;28;20027;-57
2021/10/14 00:05:35;;;;;;;15.77;15.38;;;;;;;;;;4986770;28;20117;-56
2021/10/14 00:08:02;;;;;;;16.35;16.05;;;;;;;;;;4978794;28;20536;-56
2021/10/14 00:10:29;;;;;;;17.13;16.38;;;;;;;;;;4984782;28;20383;-57
2021/10/14 00:12:56;;;;;;;16.05;15.65;;;;;;;;;;4986737;28;20069;-56
2021/10/14 00:15:23;;;;;;;16.48;16.10;;;;;;;;;;4991529;28;20062;-57
2021/10/14 00:17:50;;;;;;;16.92;16.63;;;;;;;;;;4989248;28;20046;-57
2021/10/14 00:20:17;;;;;;;14.15;13.82;;;;;;;;;;4990335;28;20039;-57
2021/10/14 00:22:44;;;;;;;16.50;16.05;;;;;;;;;;4988619;28;20667;-56
2021/10/14 00:25:10;;;;;;;14.70;14.38;;;;;;;;;;4989787;28;20041;-57
2021/10/14 00:27:37;;;;;;;16.38;15.82;;;;;;;;;;4988590;28;20452;-57
2021/10/14 00:30:04;;;;;;;14.18;13.80;;;;;;;;;;4989384;28;20066;-57
2021/10/14 00:32:31;;;;;;;16.63;16.42;;;;;;;;;;4975172;28;20047;-56
2021/10/14 00:34:58;;;;;;;15.38;15.07;;;;;;;;;;4986307;28;20077;-57
2021/10/14 00:37:24;;;;;;;16.70;16.15;;;;;;;;;;4988303;28;20043;-57
2021/10/14 00:39:51;;;;;;;16.83;16.52;;;;;;;;;;4988494;28;20109;-57
2021/10/14 00:42:18;;;;;;;16.20;15.82;;;;;;;;;;4989297;28;20105;-56
2021/10/14 00:44:51;;;;;;;15.32;15.10;;;;;;;;;;4987764;28;20049;-57
2021/10/14 00:47:18;;;;;;;;;;;;;;;;;;4989623;28;20061;-57
2021/10/14 00:49:45;;;;;;;14.82;14.55;;;;;;;;;;4988116;28;19934;-56
2021/10/14 00:52:11;;;;;;;15.25;14.93;;;;;;;;;;4989389;28;20089;-57
2021/10/14 00:54:38;;;;;;;13.05;12.77;;;;;;;;;;4989928;28;20073;-56
2021/10/14 00:57:05;;;;;;;14.95;14.60;;;;;;;;;;4984324;28;20414;-57
2021/10/14 00:59:34;;;;;;;16.05;15.82;;;;;;;;;;4986607;28;20117;-57
2021/10/14 01:02:01;;;;;;;14.48;14.13;;;;;;;;;;4987689;28;20145;-56
2021/10/14 01:04:28;;;;;;;16.15;15.77;;;;;;;;;;4988713;28;20038;-56
2021/10/14 01:06:55;;;;;;;15.40;15.18;;;;;;;;;;4987848;28;20039;-56
2021/10/14 01:09:21;;;;;;;14.43;14.07;;;;;;;;;;4982958;28;20046;-57
2021/10/14 01:11:48;;;;;;;15.18;14.98;;;;;;;;;;4990131;28;20070;-56
2021/10/14 01:14:15;;;;;;;13.63;13.43;;;;;;;;;;4989831;28;20574;-57
2021/10/14 01:16:44;;;;;;;13.88;13.68;;;;;;;;;;4989424;28;20085;-56
2021/10/14 01:19:12;;;;;;;15.93;15.30;;;;;;;;;;4986163;28;20407;-57
2021/10/14 01:21:39;;;;;;;14.95;14.55;;;;;;;;;;4990122;28;20145;-56
2021/10/14 01:24:06;;;;;;;15.32;14.98;;;;;;;;;;4989021;28;20114;-57
2021/10/14 01:26:32;;;;;;;15.45;14.88;;;;;;;;;;4988400;28;20077;-57
2021/10/14 01:28:59;;;;;;;14.82;14.52;;;;;;;;;;4990493;28;20608;-57
2021/10/14 01:31:26;;;;;;;14.35;13.85;;;;;;;;;;4986555;28;20154;-57
2021/10/14 01:33:54;;;;;;;13.93;13.73;;;;;;;;;;4989813;28;20113;-57
2021/10/14 01:36:21;;;;;;;13.93;13.63;;;;;;;;;;4986625;28;20540;-57
2021/10/14 01:38:48;;;;;;;13.70;13.48;;;;;;;;;;4988695;28;20119;-56
2021/10/14 01:41:15;;;;;;;14.13;13.85;;;;;;;;;;4988019;28;20066;-56
2021/10/14 01:43:41;;;;;;;15.75;15.65;;;;;;;;;;4985819;28;20054;-57
2021/10/14 01:46:08;;;;;;;16.67;16.42;;;;;;;;;;4988650;28;20042;-56
2021/10/14 01:48:35;;;;;;;15.65;15.35;;;;;;;;;;4989332;28;20049;-56
2021/10/14 01:51:03;;;;;;;15.68;15.35;;;;;;;;;;4991161;28;20498;-56
2021/10/14 01:53:30;;;;;;;13.75;13.38;;;;;;;;;;4977150;28;20105;-57
2021/10/14 01:55:57;;;;;;;14.45;14.15;;;;;;;;;;4990237;28;20088;-57
2021/10/14 01:58:23;;;;;;;14.55;14.45;;;;;;;;;;4981173;28;20550;-57
2021/10/14 02:00:51;;;;;;;15.35;14.85;;;;;;;;;;4990494;28;20034;-57
2021/10/14 02:03:18;;;;;;;15.38;15.07;;;;;;;;;;4991814;28;20070;-56
2021/10/14 02:05:45;;;;;;;15.05;14.75;;;;;;;;;;4977554;28;20067;-57
2021/10/14 02:08:12;;;;;;;15.30;14.95;;;;;;;;;;4991046;28;20042;-56
2021/10/14 02:10:40;;;;;;;16.67;16.48;;;;;;;;;;4991445;28;20501;-56
2021/10/14 02:13:07;;;;;;;15.70;15.15;;;;;;;;;;4993164;28;20042;-56
2021/10/14 02:15:34;;;;;;;12.93;12.52;;;;;;;;;;4992716;28;20056;-57
2021/10/14 02:18:00;;;;;;;16.58;16.05;;;;;;;;;;4991800;28;20126;-56
2021/10/14 02:20:27;;;;;;;16.60;16.15;;;;;;;;;;4992054;28;20462;-57
2021/10/14 02:22:54;;;;;;;14.00;13.77;;;;;;;;;;4981608;28;20116;-56
2021/10/14 02:25:21;;;;;;;16.08;15.18;;;;;;;;;;4980118;28;20046;-56
2021/10/14 02:27:47;;;;;;;12.82;12.60;;;;;;;;;;4990936;28;20042;-57
2021/10/14 02:30:14;;;;;;;11.98;11.75;;;;;;;;;;4993045;28;20096;-56
2021/10/14 02:32:41;;;;;;;12.10;11.38;;;;;;;;;;4984408;28;20121;-56
2021/10/14 02:35:08;;;;;;;13.13;12.35;;;;;;;;;;4982401;28;20042;-56
2021/10/14 02:37:35;;;;;;;14.52;14.23;;;;;;;;;;4989235;28;20046;-56
2021/10/14 02:40:03;;;;;;;16.77;16.15;;;;;;;;;;4990187;28;20042;-56
2021/10/14 02:42:29;;;;;;;14.60;14.30;;;;;;;;;;4987615;28;20062;-57
2021/10/14 02:44:56;;;;;;;13.10;12.80;;;;;;;;;;4984695;28;20102;-56
2021/10/14 02:47:22;;;;;;;13.73;13.43;;;;;;;;;;4991597;28;20058;-57
2021/10/14 02:49:49;;;;;;;16.42;15.52;;;;;;;;;;4992975;28;20452;-57
2021/10/14 02:52:16;;;;;;;15.90;15.55;;;;;;;;;;4990148;28;20050;-57
2021/10/14 02:54:43;;;;;;;16.60;16.02;;;;;;;;;;4990463;28;20034;-56
2021/10/14 02:57:09;;;;;;;14.57;14.35;;;;;;;;;;4987258;28;20062;-57
2021/10/14 02:59:36;;;;;;;14.57;14.15;;;;;;;;;;4983859;28;20424;-57
2021/10/14 03:02:03;;;;;;;13.65;13.43;;;;;;;;;;4991454;28;20046;-57
2021/10/14 03:04:30;;;;;;;14.10;13.65;;;;;;;;;;4988659;28;20525;-56
2021/10/14 03:06:56;;;;;;;14.32;13.85;;;;;;;;;;4990802;28;20514;-55
2021/10/14 03:09:23;;;;;;;12.70;12.55;;;;;;;;;;4981401;28;20038;-57
2021/10/14 03:11:50;;;;;;;14.00;13.80;;;;;;;;;;4985331;28;20104;-55
2021/10/14 03:14:17;;;;;;;14.20;13.90;;;;;;;;;;4988057;28;20046;-56
2021/10/14 03:16:43;;;;;;;14.48;14.07;;;;;;;;;;4987327;28;20502;-56
2021/10/14 03:19:10;;;;;;;14.65;14.20;;;;;;;;;;4990256;28;20038;-56
2021/10/14 03:21:37;;;;;;;14.23;14.02;;;;;;;;;;4991285;28;20101;-56
2021/10/14 03:24:04;;;;;;;12.93;12.45;;;;;;;;;;4990017;28;20125;-57
2021/10/14 03:26:30;;;;;;;15.30;15.02;;;;;;;;;;4984534;28;20088;-56
2021/10/14 03:28:57;;;;;;;13.60;13.45;;;;;;;;;;4992124;28;20034;-57
2021/10/14 03:31:24;;;;;;;15.57;15.27;;;;;;;;;;4986247;28;20044;-56
2021/10/14 03:33:51;;;;;;;12.65;12.45;;;;;;;;;;4989903;28;20104;-56
2021/10/14 03:36:18;;;;;;;13.32;13.18;;;;;;;;;;4990454;28;20066;-57
2021/10/14 03:38:45;;;;;;;13.13;12.82;;;;;;;;;;4990559;28;20038;-56
2021/10/14 03:41:12;;;;;;;12.32;12.23;;;;;;;;;;4991081;28;20597;-56
2021/10/14 03:43:38;;;;;;;11.30;11.05;;;;;;;;;;4989154;28;20088;-57
2021/10/14 03:46:05;;;;;;;14.25;14.05;;;;;;;;;;4987757;28;20394;-57
2021/10/14 03:48:32;;;;;;;11.65;11.18;;;;;;;;;;4990957;28;20119;-56
2021/10/14 03:50:58;;;;;;;13.02;12.20;;;;;;;;;;4990123;28;20034;-55
2021/10/14 03:53:25;;;;;;;10.77;10.55;;;;;;;;;;4983045;28;20734;-56
2021/10/14 03:55:52;;;;;;;9.80;9.60;;;;;;;;;;4981556;28;20046;-56
2021/10/14 03:58:18;;;;;;;7.68;7.47;;;;;;;;;;4980621;28;20035;-56
2021/10/14 04:00:46;;;;;;;10.55;10.07;;;;;;;;;;4989511;28;20093;-57
2021/10/14 04:03:13;;;;;;;10.63;9.70;;;;;;;;;;4991250;28;20057;-56
2021/10/14 04:05:40;;;;;;;7.82;7.63;;;;;;;;;;4983024;28;20567;-57
2021/10/14 04:08:07;;;;;;;8.98;8.65;;;;;;;;;;4988524;28;20038;-56
2021/10/14 04:10:34;;;;;;;14.07;13.68;;;;;;;;;;4981100;28;20578;-56
2021/10/14 04:13:00;;;;;;;13.32;12.88;;;;;;;;;;4988283;28;20050;-57
2021/10/14 04:15:27;;;;;;;12.68;12.32;;;;;;;;;;4990908;28;20050;-56
2021/10/14 04:17:54;;;;;;;12.70;12.60;;;;;;;;;;4987256;28;20050;-56
2021/10/14 04:20:21;;;;;;;11.57;11.35;;;;;;;;;;4988529;28;20039;-56
2021/10/14 04:22:47;;;;;;;10.73;10.63;;;;;;;;;;4973267;28;20038;-56
2021/10/14 04:25:14;;;;;;;12.98;12.65;;;;;;;;;;4985540;28;20416;-56
2021/10/14 04:27:41;;;;;;;9.27;9.18;;;;;;;;;;4978602;28;20078;-57
2021/10/14 04:30:08;;;;;;;11.30;11.20;;;;;;;;;;4990696;28;20046;-57
2021/10/14 04:32:34;;;;;;;10.13;9.82;;;;;;;;;;4989360;28;20038;-57
2021/10/14 04:35:02;;;;;;;13.10;12.55;;;;;;;;;;4975461;28;20632;-56
2021/10/14 04:37:29;;;;;;;12.50;12.30;;;;;;;;;;4983997;28;20122;-56
2021/10/14 04:39:56;;;;;;;12.43;12.02;;;;;;;;;;4988931;28;20058;-56
2021/10/14 04:42:22;;;;;;;13.02;12.73;;;;;;;;;;4990649;28;20104;-56
2021/10/14 04:44:49;;;;;;;13.38;13.00;;;;;;;;;;4985253;28;20066;-57
2021/10/14 04:47:20;;;;;;;13.07;12.88;;;;;;;;;;4983509;28;20454;-57
2021/10/14 04:49:47;;;;;;;12.23;12.02;;;;;;;;;;4983086;28;20050;-56
2021/10/14 04:52:14;;;;;;;13.32;13.02;;;;;;;;;;4978626;28;20039;-57
2021/10/14 04:54:41;;;;;;;13.43;12.82;;;;;;;;;;4989994;28;20046;-57
2021/10/14 04:57:08;;;;;;;16.02;15.82;;;;;;;;;;4986222;28;20042;-57
2021/10/14 04:59:35;;;;;;;13.18;12.75;;;;;;;;;;4989205;28;20058;-56
2021/10/14 05:02:02;;;;;;;15.55;15.15;;;;;;;;;;4987523;28;20491;-57
2021/10/14 05:04:29;;;;;;;15.65;15.23;;;;;;;;;;4984996;28;20041;-57
2021/10/14 05:06:56;;;;;;;12.18;12.07;;;;;;;;;;4990058;28;20706;-56
2021/10/14 05:09:22;;;;;;;12.93;12.45;;;;;;;;;;4987394;28;20045;-56
2021/10/14 05:11:49;;;;;;;11.05;10.75;;;;;;;;;;4988562;28;20069;-57
2021/10/14 05:14:16;;;;;;;12.50;11.93;;;;;;;;;;4988911;28;20518;-56
2021/10/14 05:16:43;;;;;;;9.07;8.88;;;;;;;;;;4982858;28;20056;-57
2021/10/14 05:19:09;;;;;;;12.82;12.52;;;;;;;;;;4988817;28;20073;-56
2021/10/14 05:21:41;;;;;;;11.00;10.60;;;;;;;;;;4986256;28;20040;-56
2021/10/14 05:24:07;;;;;;;36.65;12.90;;;;;;;;;;4988386;28;20150;-57
2021/10/14 05:26:34;;;;;;;11.32;11.15;;;;;;;;;;4987519;28;20432;-56
2021/10/14 05:29:01;;;;;;;14.68;13.52;;;;;;;;;;4987979;28;20046;-57
2021/10/14 05:31:28;;;;;;;12.95;12.75;;;;;;;;;;4981253;28;20034;-58
2021/10/14 05:33:55;;;;;;;14.57;14.13;;;;;;;;;;4987411;28;20050;-58
2021/10/14 05:36:22;;;;;;;14.05;13.93;;;;;;;;;;4989412;28;20037;-58
2021/10/14 05:38:49;;;;;;;12.90;12.70;;;;;;;;;;4977252;28;20118;-57
2021/10/14 05:41:16;;;;;;;11.50;11.30;;;;;;;;;;4984126;28;20054;-58
2021/10/14 05:43:42;;;;;;;13.63;13.52;;;;;;;;;;4986240;28;20062;-58
2021/10/14 05:46:09;;;;;;;11.38;11.20;;;;;;;;;;4988373;28;20085;-58
2021/10/14 05:48:36;;;;;;;14.60;14.18;;;;;;;;;;4978714;28;20058;-58
2021/10/14 05:51:03;;;;;;;13.60;13.50;;;;;;;;;;4979692;28;20047;-57
2021/10/14 05:53:30;;;;;;;14.93;14.55;;;;;;;;;;4982194;28;20058;-58
2021/10/14 05:55:57;;;;;;;14.10;13.70;;;;;;;;;;4972148;28;20078;-58
2021/10/14 05:58:23;;;;;;;13.77;13.57;;;;;;;;;;4982801;28;20119;-58
2021/10/14 06:00:50;;;;;;;13.60;13.30;;;;;;;;;;4982351;28;20056;-58
2021/10/14 06:03:17;;;;;;;12.60;12.20;;;;;;;;;;4982371;28;20484;-58
2021/10/14 06:05:44;;;;;;;12.38;11.85;;;;;;;;;;4983369;28;20103;-58
2021/10/14 06:08:11;;;;;;;9.52;9.20;;;;;;;;;;4972954;28;20521;-58
2021/10/14 06:10:37;;;;;;;14.43;14.20;;;;;;;;;;4988359;28;20078;-58
2021/10/14 06:13:04;;;;;;;12.40;12.30;;;;;;;;;;4986654;28;20034;-58
2021/10/14 06:15:31;;;;;;;11.63;11.52;;;;;;;;;;4978156;28;20043;-58
2021/10/14 06:17:58;;;;;;;12.13;11.82;;;;;;;;;;4987471;28;20434;-58
2021/10/14 06:20:24;;;;;;;10.95;10.85;;;;;;;;;;5003421;28;20047;-58
2021/10/14 06:22:51;;;;;;;12.82;12.63;;;;;;;;;;4988308;28;20116;-57
2021/10/14 06:25:18;;;;;;;11.68;11.48;;;;;;;;;;5002389;28;20062;-57
2021/10/14 06:27:45;;;;;;;15.35;14.95;;;;;;;;;;4974207;28;20063;-58
2021/10/14 06:30:12;;;;;;;11.15;11.05;;;;;;;;;;4988624;28;20158;-57
2021/10/14 06:32:39;;;;;;;12.82;12.65;;;;;;;;;;4981297;28;20100;-57
2021/10/14 06:35:06;;;;;;;13.75;13.45;;;;;;;;;;4979800;28;20109;-58
2021/10/14 06:37:33;;;;;;;12.57;12.48;;;;;;;;;;4984233;28;20117;-58
2021/10/14 06:39:59;;;;;;;12.80;12.23;;;;;;;;;;4993376;28;20088;-58
2021/10/14 06:42:26;;;;;;;13.05;12.75;;;;;;;;;;4989229;28;20046;-57
2021/10/14 06:44:52;;;;;;;10.95;10.82;;;;;;;;;;4989887;28;20077;-57
2021/10/14 06:47:19;;;;;;;5.57;5.57;;;;;;;;;;4982728;28;20039;-58
2021/10/14 06:49:48;;;;;;;9.50;9.40;;;;;;;;;;4990239;28;20050;-58
2021/10/14 06:52:16;;;;;;;5.07;5.07;;;;;;;;;;4974935;28;20042;-58
2021/10/14 06:54:43;;;;;;;3.63;3.53;;;;;;;;;;4986067;28;20062;-57
2021/10/14 06:57:10;;;;;;;4.70;4.50;;;;;;;;;;4979725;28;20731;-57
2021/10/14 06:59:36;;;;;;;2.97;2.95;;;;;;;;;;4992818;28;20053;-57
2021/10/14 07:02:03;;;;;;;3.63;3.42;;;;;;;;;;4990133;28;20116;-58
2021/10/14 07:04:30;;;;;;;6.00;5.75;;;;;;;;;;4973433;28;20046;-57
2021/10/14 07:06:57;;;;;;;3.40;3.40;;;;;;;;;;4984124;28;20047;-57
2021/10/14 07:09:24;;;;;;;2.17;1.13;;;;;;;;;;4979257;28;20068;-57
2021/10/14 07:11:52;;;;;;;1.50;1.25;;;;;;;;;;4992114;28;20055;-57
2021/10/14 07:14:20;;;;;;;1.80;1.10;;;;;;;;;;4991225;28;20046;-57
2021/10/14 07:16:47;;;;;;;1.33;1.33;;;;;;;;;;4987964;28;20070;-57
2021/10/14 07:19:13;;;;;;;2.80;1.00;;;;;;;;;;4984253;28;20061;-56
2021/10/14 07:21:40;;;;;;;1.25;1.05;;;;;;;;;;4991951;28;20041;-57
2021/10/14 07:24:07;;;;;;;1.00;1.00;;;;;;;;;;4991736;28;20046;-58
2021/10/14 07:26:34;;;;;;;3.25;1.15;;;;;;;;;;4988989;28;20121;-57
2021/10/14 07:29:03;;;;;;;1.10;1.10;;;;;;;;;;4976216;28;20034;-58
2021/10/14 07:31:31;;;;;;;1.10;1.10;;;;;;;;;;4982648;28;20062;-57
2021/10/14 07:33:58;;;;;;;2.17;1.52;;;;;;;;;;4989055;28;20130;-57
2021/10/14 07:36:25;;;;;;;0.90;0.90;;;;;;;;;;4975614;28;20105;-57
2021/10/14 07:38:51;;;;;;;1.17;1.13;;;;;;;;;;4988208;28;20465;-57
2021/10/14 07:41:18;;;;;;;0.90;0.90;;;;;;;;;;4992783;28;20552;-57
2021/10/14 07:43:45;;;;;;;1.10;1.00;;;;;;;;;;4980823;28;20050;-57
2021/10/14 07:46:12;;;;;;;1.85;1.00;;;;;;;;;;4985315;28;20427;-57
2021/10/14 07:48:39;;;;;;;0.90;0.90;;;;;;;;;;4982422;28;20039;-57
2021/10/14 07:51:07;;;;;;;1.00;1.00;;;;;;;;;;4987959;28;20469;-58
2021/10/14 07:53:34;;;;;;;1.08;1.08;;;;;;;;;;4977407;28;20038;-57
2021/10/14 07:56:01;;;;;;;1.00;1.00;;;;;;;;;;4987828;28;20101;-57
2021/10/14 07:58:28;;;;;;;0.90;0.90;;;;;;;;;;4984314;28;20042;-57
2021/10/14 08:00:54;;;;;;;0.93;0.93;;;;;;;;;;4991058;28;20069;-57
2021/10/14 08:03:21;;;;;;;1.00;1.00;;;;;;;;;;4984643;28;20066;-57
2021/10/14 08:05:48;;;;;;;0.95;0.93;;;;;;;;;;4978840;28;20034;-58
2021/10/14 08:08:14;;;;;;;0.90;0.90;;;;;;;;;;4977307;28;20059;-57
2021/10/14 08:10:42;;;;;;;1.35;1.02;;;;;;;;;;4986103;28;20475;-57
2021/10/14 08:13:15;;;;;;;1.30;0.90;;;;;;;;;;4975201;28;20078;-57
2021/10/14 08:15:49;;;;;;;1.98;1.75;;;;;;;;;;4982177;28;20555;-56
2021/10/14 08:18:19;;;;;;;2.65;1.45;;;;;;;;;;4984290;28;20046;-57
2021/10/14 08:20:47;;;;;;;0.90;0.90;;;;;;;;;;4991307;28;20126;-57
2021/10/14 08:23:14;;;;;;;1.95;1.00;;;;;;;;;;4990028;28;20034;-57
2021/10/14 08:25:41;;;;;;;0.90;0.90;;;;;;;;;;4988749;28;20074;-57
2021/10/14 08:28:08;;;;;;;0.80;0.80;;;;;;;;;;4990796;28;20050;-57
2021/10/14 08:30:35;;;;;;;1.42;0.90;;;;;;;;;;4988197;28;20069;-57
2021/10/14 08:33:01;;;;;;;0.90;0.90;;;;;;;;;;4986198;28;20070;-57
2021/10/14 08:35:35;;;;;;;0.90;0.90;;;;;;;;;;4985778;28;20538;-57
2021/10/14 08:38:05;;;;;;;1.02;1.00;;;;;;;;;;4988312;28;20446;-57
2021/10/14 08:40:33;;;;;;;1.38;1.20;;;;;;;;;;4983695;28;20046;-57
2021/10/14 08:43:01;;;;;;;1.13;0.95;;;;;;;;;;4986572;28;20046;-56
2021/10/14 08:45:28;;;;;;;1.15;1.05;;;;;;;;;;4989580;28;20077;-57
2021/10/14 08:47:55;;;;;;;1.10;1.10;;;;;;;;;;4981980;28;20057;-56
2021/10/14 08:50:22;;;;;;;3.30;1.00;;;;;;;;;;4980947;28;20042;-57
2021/10/14 08:52:49;;;;;;;1.02;1.02;;;;;;;;;;4986027;28;20062;-56
2021/10/14 08:55:18;;;;;;;6.80;1.67;;;;;;;;;;4985641;28;20514;-58
2021/10/14 08:57:45;;;;;;;3.92;0.90;;;;;;;;;;4989154;28;20483;-57
2021/10/14 09:00:12;;;;;;;1.00;1.00;;;;;;;;;;4989351;28;20051;-57
2021/10/14 09:02:40;;;;;;;2.05;1.08;;;;;;;;;;4988730;28;20030;-56
2021/10/14 09:05:09;;;;;;;1.10;1.10;;;;;;;;;;4981119;28;20046;-56
2021/10/14 09:07:36;;;;;;;1.00;1.00;;;;;;;;;;4988438;28;20407;-57
2021/10/14 09:10:05;;;;;;;2.15;1.10;;;;;;;;;;4989570;28;20103;-57
2021/10/14 09:12:36;;;;;;;1.10;1.10;;;;;;;;;;4990162;28;20134;-57
2021/10/14 09:15:07;;;;;;;2.45;1.05;;;;;;;;;;4989198;28;20047;-57
2021/10/14 09:17:37;;;;;;;2.85;1.05;;;;;;;;;;4972576;28;20105;-57
2021/10/14 09:20:22;;;;;;;0.93;0.93;;;;;;;;;;4988282;28;20471;-56
2021/10/14 09:22:55;;;;;;;0.98;0.98;;;;;;;;;;4989746;28;20038;-57
2021/10/14 09:25:29;;;;;;;1.10;1.10;;;;;;;;;;4989122;28;20114;-57
2021/10/14 09:28:07;;;;;;;1.35;1.00;;;;;;;;;;4983481;28;20038;-57
2021/10/14 09:30:44;;;;;;;2.85;0.90;;;;;;;;;;4979040;28;20045;-56
2021/10/14 09:33:29;;;;;;;0.93;0.90;;;;;;;;;;4976667;28;20893;-57
2021/10/14 09:35:57;;;;;;;2.55;1.20;;;;;;;;;;4984877;28;20122;-57
2021/10/14 09:38:33;;;;;;;0.90;0.90;;;;;;;;;;4986532;28;20034;-58
2021/10/14 09:41:01;;;;;;;0.90;0.90;;;;;;;;;;5021018;28;20630;-57
2021/10/14 09:43:27;;;;;;;1.30;1.00;;;;;;;;;;4989176;28;20093;-57
2021/10/14 09:45:54;;;;;;;1.00;1.00;;;;;;;;;;4972674;28;20096;-56
2021/10/14 09:48:21;;;;;;;0.93;0.90;;;;;;;;;;4981593;28;20108;-57
2021/10/14 09:50:48;;;;;;;1.00;1.00;;;;;;;;;;4983433;28;20043;-58
2021/10/14 09:53:19;;;;;;;1.63;1.00;;;;;;;;;;4989914;28;20132;-57
2021/10/14 09:55:48;;;;;;;0.82;0.82;;;;;;;;;;4986895;28;20423;-56
2021/10/14 09:58:16;;;;;;;1.15;0.90;;;;;;;;;;4975111;28;20054;-56
2021/10/14 10:00:44;;;;;;;1.50;1.40;;;;;;;;;;4989056;28;20523;-57
2021/10/14 10:03:15;;;;;;;1.15;1.15;;;;;;;;;;4987913;28;20089;-57
2021/10/14 10:05:45;;;;;;;0.90;0.90;;;;;;;;;;4983017;28;20150;-57
2021/10/14 10:08:13;;;;;;;0.90;0.90;;;;;;;;;;4987920;28;20042;-56
2021/10/14 10:10:42;;;;;;;1.00;1.00;;;;;;;;;;4991172;28;20034;-56
2021/10/14 10:13:11;;;;;;;0.93;0.93;;;;;;;;;;4992513;28;20034;-57
2021/10/14 10:15:42;;;;;;;1.00;1.00;;;;;;;;;;4992446;28;20096;-57
2021/10/14 10:18:28;;;;;;;1.02;1.02;;;;;;;;;;4976292;28;20038;-57
2021/10/14 10:20:55;;;;;;;1.75;0.93;;;;;;;;;;4989915;28;20066;-57
2021/10/14 10:23:41;;;;;;;1.95;0.80;;;;;;;;;;4990236;28;20471;-57
2021/10/14 10:26:26;;;;;;;1.48;1.00;;;;;;;;;;4994567;28;20100;-56
2021/10/14 10:28:53;;;;;;;0.80;0.80;;;;;;;;;;5004876;28;20035;-57
2021/10/14 10:31:20;;;;;;;1.65;0.80;;;;;;;;;;4988196;28;20141;-58
2021/10/14 10:33:48;;;;;;;1.05;1.05;;;;;;;;;;4994478;28;20097;-57
2021/10/14 10:36:34;;;;;;;1.05;0.90;;;;;;;;;;4989145;28;20092;-56
2021/10/14 10:39:01;;;;;;;1.55;1.55;;;;;;;;;;4992993;28;20035;-57
2021/10/14 10:41:27;;;;;;;0.90;0.90;;;;;;;;;;4989269;28;20053;-57
2021/10/14 10:43:58;;;;;;;1.17;0.90;;;;;;;;;;4987783;28;20057;-57
2021/10/14 10:46:31;;;;;;;1.10;1.10;;;;;;;;;;4990565;28;20553;-58
2021/10/14 10:49:09;;;;;;;;;;;;;;;;;;4996838;28;20069;-57
2021/10/14 10:51:35;;;;;;;1.35;1.35;;;;;;;;;;4995017;28;19937;-57
2021/10/14 10:54:02;;;;;;;1.10;1.10;;;;;;;;;;4990617;28;20051;-57
2021/10/14 10:56:30;;;;;;;2.67;1.13;;;;;;;;;;4991380;28;20080;-57
2021/10/14 10:58:58;;;;;;;2.83;0.90;;;;;;;;;;4992925;28;20093;-56
2021/10/14 11:01:25;;;;;;;1.88;0.98;;;;;;;;;;4990245;28;20066;-57
2021/10/14 11:03:59;;;;;;;2.67;0.90;;;;;;;;;;4993099;28;20035;-57
2021/10/14 11:06:26;;;;;;;1.85;1.02;;;;;;;;;;4988376;28;20522;-57
2021/10/14 11:08:57;;;;;;;1.35;0.88;;;;;;;;;;4988571;28;20057;-56
2021/10/14 11:11:24;;;;;;;1.40;0.82;;;;;;;;;;4991307;28;20045;-57
2021/10/14 11:13:54;;;;;;;1.13;0.80;;;;;;;;;;4990636;28;20073;-57
2021/10/14 11:16:24;;;;;;;1.00;1.00;;;;;;;;;;4991239;28;20034;-57
2021/10/14 11:18:52;;;;;;;1.00;1.00;;;;;;;;;;4991655;28;20128;-56
2021/10/14 11:21:36;;;;;;;1.23;1.23;;;;;;;;;;4991544;28;20066;-56
2021/10/14 11:24:03;;;;;;;1.38;1.38;;;;;;;;;;4990892;28;20040;-56
2021/10/14 11:26:35;;;;;;;2.03;1.00;;;;;;;;;;4992122;28;20104;-56
2021/10/14 11:29:07;;;;;;;1.15;1.05;;;;;;;;;;4988259;28;20050;-57
2021/10/14 11:31:42;;;;;;;1.05;1.00;;;;;;;;;;4990776;28;20042;-56
2021/10/14 11:34:14;;;;;;;1.00;1.00;;;;;;;;;;4991692;28;20046;-56
2021/10/14 11:36:48;;;;;;;0.90;0.90;;;;;;;;;;4990307;28;20104;-56
2021/10/14 11:39:17;;;;;;;2.20;0.82;;;;;;;;;;4990602;28;20046;-56
2021/10/14 11:41:43;;;;;;;1.00;1.00;;;;;;;;;;4983769;28;20166;-57
2021/10/14 11:44:11;;;;;;;0.80;0.80;;;;;;;;;;4978213;28;20046;-57
2021/10/14 11:46:39;;;;;;;0.90;0.90;;;;;;;;;;4988454;28;20109;-56
2021/10/14 11:49:07;;;;;;;1.33;0.90;;;;;;;;;;4988699;28;20589;-57
2021/10/14 11:51:34;;;;;;;0.90;0.90;;;;;;;;;;4981917;28;20368;-57
2021/10/14 11:54:06;;;;;;;2.50;1.40;;;;;;;;;;4992053;28;20035;-56
2021/10/14 11:56:45;;;;;;;1.25;0.90;;;;;;;;;;4989764;28;20039;-57
2021/10/14 11:59:12;;;;;;;1.38;0.80;;;;;;;;;;4991398;28;20043;-57
2021/10/14 12:01:42;;;;;;;0.90;0.90;;;;;;;;;;4989746;28;20066;-56
2021/10/14 12:04:09;;;;;;;0.80;0.80;;;;;;;;;;4989620;28;20043;-57
2021/10/14 12:06:36;;;;;;;1.45;0.90;;;;;;;;;;4989535;28;20478;-57
2021/10/14 12:09:23;;;;;;;1.23;0.77;;;;;;;;;;4984854;28;20050;-57
2021/10/14 12:11:57;;;;;;;1.00;0.90;;;;;;;;;;4989296;28;20038;-56
2021/10/14 12:14:24;;;;;;;1.52;0.80;;;;;;;;;;4992054;28;20478;-57
2021/10/14 12:17:08;;;;;;;0.80;0.80;;;;;;;;;;4987770;28;20498;-57
2021/10/14 12:19:39;;;;;;;0.80;0.80;;;;;;;;;;4988146;28;20035;-57
2021/10/14 12:22:07;;;;;;;1.02;0.80;;;;;;;;;;4985642;28;20046;-57
2021/10/14 12:24:49;;;;;;;1.25;0.90;;;;;;;;;;4986639;28;20038;-57
2021/10/14 12:27:16;;;;;;;0.90;0.90;;;;;;;;;;4987829;28;20037;-56
2021/10/14 12:29:46;;;;;;;0.80;0.80;;;;;;;;;;4985580;28;20066;-57
2021/10/14 12:32:20;;;;;;;2.15;0.85;;;;;;;;;;4985231;28;20046;-56
2021/10/14 12:34:53;;;;;;;0.73;0.73;;;;;;;;;;4986394;28;20125;-57
2021/10/14 12:37:24;;;;;;;0.90;0.90;;;;;;;;;;4988439;28;20042;-57
2021/10/14 12:40:09;;;;;;;0.93;0.80;;;;;;;;;;4984916;28;20073;-57
2021/10/14 12:42:43;;;;;;;1.40;1.00;;;;;;;;;;4986082;28;20124;-57
2021/10/14 12:45:13;;;;;;;0.80;0.80;;;;;;;;;;4991120;28;20053;-41
2021/10/14 12:47:49;;;;;;;0.70;0.70;;;;;;;;;;4980911;28;20498;-42
2021/10/14 12:53:08;;;;;;;0.85;0.85;;;;;;;;;;4986394;28;20132;-41
2021/10/14 12:55:52;;;;;;;0.80;0.75;;;;;;;;;;4985234;28;20042;-41
2021/10/14 12:58:19;;;;;;;0.80;0.80;;;;;;;;;;4983420;28;20050;-41
2021/10/14 13:00:56;;;;;;;0.90;0.90;;;;;;;;;;4989311;28;20133;-41
2021/10/14 13:03:23;;;;;;;1.52;0.80;;;;;;;;;;4989385;28;20034;-40
2021/10/14 13:05:50;;;;;;;0.80;0.80;;;;;;;;;;4979086;28;20488;-40
2021/10/14 13:08:17;;;;;;;0.70;0.70;;;;;;;;;;4978731;28;20436;-41
2021/10/14 13:10:44;;;;;;;0.90;0.90;;;;;;;;;;4985126;28;20042;-40
2021/10/14 13:13:12;;;;;;;1.55;1.00;;;;;;;;;;4973427;28;20462;-41
2021/10/14 13:15:40;;;;;;;0.82;0.80;;;;;;;;;;4990511;28;20054;-40
2021/10/14 13:18:07;;;;;;;1.20;0.80;;;;;;;;;;4988967;28;20514;-40
2021/10/14 13:20:34;;;;;;;0.88;0.88;;;;;;;;;;4989264;28;20046;-41
2021/10/14 13:23:02;;;;;;;1.05;0.80;;;;;;;;;;4988224;28;20493;-40
2021/10/14 13:25:30;;;;;;;0.68;0.68;;;;;;;;;;4988739;28;20053;-40
2021/10/14 13:27:57;;;;;;;1.02;0.90;;;;;;;;;;4990186;28;20511;-42
2021/10/14 13:30:24;;;;;;;0.90;0.70;;;;;;;;;;4987612;28;20469;-39
2021/10/14 13:32:51;;;;;;;1.00;0.70;;;;;;;;;;4990166;28;20050;-41
2021/10/14 13:35:20;;;;;;;2.40;0.70;;;;;;;;;;4989850;28;20046;-40
2021/10/14 13:37:47;;;;;;;0.70;0.70;;;;;;;;;;4989932;28;20035;-41
2021/10/14 13:40:15;;;;;;;0.70;0.70;;;;;;;;;;4988992;28;20073;-41
2021/10/14 13:42:47;;;;;;;0.95;0.80;;;;;;;;;;4989570;28;20046;-41
2021/10/14 13:45:16;;;;;;;1.08;0.63;;;;;;;;;;4993136;28;20042;-40
2021/10/14 13:47:43;;;;;;;0.70;0.70;;;;;;;;;;4991643;28;20431;-40
2021/10/14 13:50:10;;;;;;;0.90;0.90;;;;;;;;;;4985402;28;20074;-39
2021/10/14 13:52:40;;;;;;;0.95;0.80;;;;;;;;;;4993891;28;20420;-41
2021/10/14 13:55:11;;;;;;;0.98;0.70;;;;;;;;;;4992728;28;20128;-40
2021/10/14 13:57:38;;;;;;;0.93;0.80;;;;;;;;;;4992025;28;20085;-40
2021/10/14 14:00:07;;;;;;;2.08;1.25;;;;;;;;;;4994294;28;20439;-42
2021/10/14 14:02:35;;;;;;;0.80;0.80;;;;;;;;;;4989113;28;20401;-40
2021/10/14 14:05:02;;;;;;;0.80;0.80;;;;;;;;;;4993538;28;20054;-40
2021/10/14 14:07:29;;;;;;;0.80;0.80;;;;;;;;;;4991848;28;20114;-40
2021/10/14 14:09:56;;;;;;;0.88;0.88;;;;;;;;;;4993475;28;20042;-39
2021/10/14 14:12:22;;;;;;;0.80;0.80;;;;;;;;;;4993336;28;20133;-42
2021/10/14 14:14:49;;;;;;;3.03;0.80;;;;;;;;;;4990979;28;20108;-42
2021/10/14 14:17:16;;;;;;;1.50;1.50;;;;;;;;;;4990682;28;20035;-41
2021/10/14 14:19:43;;;;;;;0.80;0.80;;;;;;;;;;5004562;28;20121;-41
2021/10/14 14:22:12;;;;;;;1.85;0.90;;;;;;;;;;4992193;28;20046;-40
2021/10/14 14:24:38;;;;;;;1.13;0.80;;;;;;;;;;4993019;28;20030;-41
2021/10/14 14:27:05;;;;;;;1.15;0.80;;;;;;;;;;4992431;28;20035;-39
2021/10/14 14:29:32;;;;;;;0.90;0.90;;;;;;;;;;4992526;28;20097;-41
2021/10/14 14:31:59;;;;;;;2.05;0.90;;;;;;;;;;4991628;28;20042;-41
2021/10/14 14:34:27;;;;;;;1.58;0.90;;;;;;;;;;4992908;28;20054;-41
2021/10/14 14:37:00;;;;;;;0.90;0.90;;;;;;;;;;4993026;28;20042;-41
2021/10/14 14:39:27;;;;;;;0.90;0.90;;;;;;;;;;4991160;28;20434;-41